Time;durP1;ratioP1;P1;durP2;ratioP2;P2;SDS_P1;SDS_P2;PMS_P1;PMS_P2;Temp;Humidity;BMP_temperature;BMP_pressure;BME280_temperature;BME280_humidity;BME280_pressure;Samples;Min_cycle;Max_cycle;Signal;HPM_P1;HPM_P2
2021/10/10 00:02:02;;;;;;;146.38;46.70;;;;;;;6.26;100.00;102198.25;5056117;28;20403;-68
2021/10/10 00:04:30;;;;;;;151.95;47.33;;;;;;;6.10;100.00;102201.91;5055902;28;20063;-70
2021/10/10 00:06:58;;;;;;;165.90;49.35;;;;;;;6.45;100.00;102203.19;5057700;28;20033;-70
2021/10/10 00:09:27;;;;;;;160.18;50.90;;;;;;;6.49;100.00;102205.56;5055959;28;20184;-69
2021/10/10 00:11:58;;;;;;;146.02;44.47;;;;;;;6.34;100.00;102195.97;5055721;28;20048;-69
2021/10/10 00:14:26;;;;;;;125.10;38.55;;;;;;;5.92;100.00;102205.72;5053089;28;20036;-69
2021/10/10 00:16:54;;;;;;;83.38;29.70;;;;;;;5.73;100.00;102206.91;5052970;28;20322;-70
2021/10/10 00:19:22;;;;;;;92.22;33.05;;;;;;;5.51;100.00;102207.41;5051286;28;20399;-70
2021/10/10 00:21:50;;;;;;;108.60;33.33;;;;;;;5.56;100.00;102209.75;5052984;28;20067;-70
2021/10/10 00:24:17;;;;;;;119.30;40.97;;;;;;;5.66;100.00;102205.59;5056692;28;20052;-69
2021/10/10 00:26:47;;;;;;;138.63;43.97;;;;;;;5.89;100.00;102201.47;5057918;28;20075;-69
2021/10/10 00:29:16;;;;;;;135.45;43.90;;;;;;;5.71;100.00;102200.81;5056747;28;20098;-69
2021/10/10 00:31:44;;;;;;;145.18;44.83;;;;;;;5.72;100.00;102199.06;5054288;28;20064;-69
2021/10/10 00:34:12;;;;;;;173.07;51.10;;;;;;;5.81;100.00;102196.66;5056553;28;20052;-69
2021/10/10 00:36:41;;;;;;;178.98;50.53;;;;;;;5.92;100.00;102192.47;5050967;28;20346;-69
2021/10/10 00:39:09;;;;;;;166.18;50.92;;;;;;;6.13;100.00;102204.34;5057472;28;20048;-69
2021/10/10 00:41:37;;;;;;;200.20;56.95;;;;;;;6.16;100.00;102201.50;5055439;28;20045;-69
2021/10/10 00:44:09;;;;;;;146.40;47.15;;;;;;;6.15;100.00;102202.47;5054837;28;20074;-69
2021/10/10 00:46:40;;;;;;;153.75;46.80;;;;;;;5.99;100.00;102202.59;5057745;28;20045;-69
2021/10/10 00:49:08;;;;;;;170.52;50.90;;;;;;;5.98;100.00;102194.75;5057054;28;20041;-69
2021/10/10 00:51:37;;;;;;;181.35;56.88;;;;;;;6.15;100.00;102198.94;5057365;28;20052;-69
2021/10/10 00:54:06;;;;;;;203.27;56.28;;;;;;;6.21;100.00;102198.56;5057840;28;20053;-69
2021/10/10 00:56:35;;;;;;;179.43;54.60;;;;;;;6.13;100.00;102199.06;5052185;28;20041;-69
2021/10/10 00:59:05;;;;;;;176.85;50.92;;;;;;;5.93;100.00;102202.97;5057894;28;20074;-69
2021/10/10 01:01:34;;;;;;;96.15;33.78;;;;;;;5.77;100.00;102196.94;5055164;28;20044;-69
2021/10/10 01:04:03;;;;;;;100.97;35.95;;;;;;;5.62;100.00;102201.44;5052149;28;20360;-68
2021/10/10 01:06:31;;;;;;;108.03;35.40;;;;;;;5.44;100.00;102196.31;5052542;28;20106;-68
2021/10/10 01:08:59;;;;;;;138.40;42.90;;;;;;;5.57;100.00;102190.25;5055843;28;20064;-69
2021/10/10 01:11:27;;;;;;;166.48;49.25;;;;;;;6.09;100.00;102186.94;5061179;28;20336;-70
2021/10/10 01:13:56;;;;;;;160.55;48.90;;;;;;;6.16;100.00;102190.06;5062557;28;20388;-70
2021/10/10 01:16:24;;;;;;;184.45;52.80;;;;;;;6.08;100.00;102187.91;5063300;28;20393;-70
2021/10/10 01:18:56;;;;;;;143.23;43.30;;;;;;;5.55;100.00;102184.22;5065316;28;20045;-70
2021/10/10 01:21:25;;;;;;;144.60;43.53;;;;;;;5.27;100.00;102188.56;5061160;28;20431;-70
2021/10/10 01:23:53;;;;;;;128.88;39.63;;;;;;;5.30;100.00;102193.69;5061069;28;20671;-70
2021/10/10 01:26:22;;;;;;;134.82;41.55;;;;;;;5.07;100.00;102187.16;5063149;28;20045;-70
2021/10/10 01:28:50;;;;;;;148.52;42.65;;;;;;;5.19;100.00;102186.41;5067672;28;20047;-70
2021/10/10 01:31:18;;;;;;;134.82;41.22;;;;;;;5.11;100.00;102183.38;5064985;28;20040;-70
2021/10/10 01:33:46;;;;;;;110.55;36.88;;;;;;;4.95;100.00;102181.66;5060561;28;20313;-70
2021/10/10 01:36:17;;;;;;;94.72;33.97;;;;;;;4.99;100.00;102185.00;5066262;28;20107;-71
2021/10/10 01:38:47;;;;;;;122.75;40.67;;;;;;;5.13;100.00;102179.69;5057974;28;20033;-71
2021/10/10 01:41:15;;;;;;;129.05;39.63;;;;;;;5.13;100.00;102178.81;5061969;28;20489;-70
2021/10/10 01:43:43;;;;;;;164.13;48.38;;;;;;;5.17;100.00;102178.56;5063928;28;20041;-71
2021/10/10 01:46:11;;;;;;;137.25;43.75;;;;;;;5.33;100.00;102173.16;5064120;28;20047;-71
2021/10/10 01:48:39;;;;;;;124.20;40.72;;;;;;;5.34;100.00;102180.16;5061826;28;20087;-71
2021/10/10 01:51:07;;;;;;;120.97;38.58;;;;;;;5.22;100.00;102177.44;5066131;28;20051;-70
2021/10/10 01:53:34;;;;;;;118.05;37.58;;;;;;;5.02;100.00;102173.34;5061813;28;20048;-71
2021/10/10 01:56:04;;;;;;;76.60;28.73;;;;;;;5.02;100.00;102166.25;5060138;28;20044;-73
2021/10/10 01:58:33;;;;;;;95.80;33.35;;;;;;;5.03;100.00;102169.75;5056397;28;20037;-72
2021/10/10 02:01:01;;;;;;;79.70;30.45;;;;;;;4.97;100.00;102171.81;5057720;28;20049;-72
2021/10/10 02:03:29;;;;;;;85.07;30.38;;;;;;;4.86;100.00;102157.53;5056300;28;20174;-72
2021/10/10 02:05:57;;;;;;;93.90;31.17;;;;;;;4.69;100.00;102164.69;5052663;28;20045;-72
2021/10/10 02:08:25;;;;;;;96.03;32.08;;;;;;;4.64;100.00;102154.38;5058741;28;20040;-72
2021/10/10 02:10:53;;;;;;;111.70;32.53;;;;;;;4.75;100.00;102161.69;5057680;28;20060;-72
2021/10/10 02:13:22;;;;;;;110.30;35.20;;;;;;;4.73;100.00;102155.63;5054905;28;20380;-72
2021/10/10 02:15:50;;;;;;;116.75;37.25;;;;;;;4.67;100.00;102163.94;5056317;28;20360;-72
2021/10/10 02:18:18;;;;;;;118.68;36.80;;;;;;;4.58;100.00;102160.06;5051466;28;20052;-72
2021/10/10 02:20:46;;;;;;;130.98;37.20;;;;;;;4.42;100.00;102160.13;5059145;28;20639;-72
2021/10/10 02:23:14;;;;;;;108.85;36.40;;;;;;;4.32;100.00;102161.56;5055680;28;20041;-72
2021/10/10 02:25:42;;;;;;;126.15;39.00;;;;;;;4.36;100.00;102163.09;5056087;28;20048;-72
2021/10/10 02:28:10;;;;;;;106.75;32.42;;;;;;;4.38;100.00;102153.31;5055937;28;20436;-72
2021/10/10 02:30:39;;;;;;;96.57;33.22;;;;;;;4.55;100.00;102154.97;5054999;28;20700;-73
2021/10/10 02:33:07;;;;;;;100.75;34.33;;;;;;;4.69;100.00;102153.25;5052792;28;20044;-72
2021/10/10 02:35:35;;;;;;;75.70;29.15;;;;;;;4.61;100.00;102156.38;5054503;28;20033;-72
2021/10/10 02:38:04;;;;;;;67.10;26.90;;;;;;;4.61;100.00;102153.75;5051268;28;20045;-72
2021/10/10 02:40:32;;;;;;;90.00;28.98;;;;;;;4.36;100.00;102165.75;5057442;28;20255;-73
2021/10/10 02:43:00;;;;;;;91.43;29.88;;;;;;;4.22;100.00;102163.06;5055366;28;20044;-72
2021/10/10 02:45:29;;;;;;;103.55;30.20;;;;;;;4.06;100.00;102155.16;5055681;28;20094;-73
2021/10/10 02:47:58;;;;;;;106.97;31.08;;;;;;;4.02;100.00;102151.84;5055443;28;20107;-73
2021/10/10 02:50:26;;;;;;;135.50;33.92;;;;;;;4.04;100.00;102162.31;5056429;28;20094;-72
2021/10/10 02:52:55;;;;;;;120.93;35.10;;;;;;;3.90;100.00;102153.41;5057623;28;20049;-72
2021/10/10 02:55:23;;;;;;;136.85;38.20;;;;;;;3.81;100.00;102156.53;5053037;28;20337;-72
2021/10/10 02:57:51;;;;;;;140.05;36.40;;;;;;;3.66;100.00;102155.63;5056069;28;20045;-73
2021/10/10 03:00:19;;;;;;;123.97;33.35;;;;;;;3.62;100.00;102154.09;5056918;28;20036;-72
2021/10/10 03:02:47;;;;;;;127.68;38.17;;;;;;;3.59;100.00;102149.81;5057867;28;20113;-73
2021/10/10 03:05:16;;;;;;;112.45;34.72;;;;;;;3.63;100.00;102150.53;5057967;28;20447;-73
2021/10/10 03:07:44;;;;;;;127.97;39.33;;;;;;;3.68;100.00;102148.44;5056126;28;20471;-73
2021/10/10 03:10:12;;;;;;;116.97;35.92;;;;;;;3.72;100.00;102150.00;5055353;28;20048;-73
2021/10/10 03:12:40;;;;;;;124.38;39.00;;;;;;;3.74;100.00;102141.97;5057550;28;20049;-73
2021/10/10 03:15:08;;;;;;;122.05;37.70;;;;;;;4.01;100.00;102151.91;5051204;28;20041;-73
2021/10/10 03:17:36;;;;;;;158.73;43.83;;;;;;;4.29;100.00;102143.25;5052601;28;20047;-73
2021/10/10 03:20:05;;;;;;;141.73;41.72;;;;;;;4.48;100.00;102146.53;5056195;28;20383;-72
2021/10/10 03:22:35;;;;;;;136.55;39.63;;;;;;;4.25;100.00;102147.00;5056784;28;20037;-72
2021/10/10 03:25:03;;;;;;;108.03;34.75;;;;;;;3.95;100.00;102139.91;5058621;28;20063;-73
2021/10/10 03:27:31;;;;;;;125.95;35.45;;;;;;;3.71;100.00;102134.22;5051093;28;20060;-73
2021/10/10 03:29:59;;;;;;;166.35;40.90;;;;;;;3.61;100.00;102141.81;5055724;28;20340;-73
2021/10/10 03:32:26;;;;;;;110.35;32.15;;;;;;;3.50;100.00;102139.78;5053818;28;20049;-73
2021/10/10 03:34:57;;;;;;;123.55;35.97;;;;;;;3.45;100.00;102137.38;5051748;28;20075;-73
2021/10/10 03:37:27;;;;;;;118.93;34.25;;;;;;;3.53;100.00;102139.59;5054481;28;20071;-73
2021/10/10 03:40:00;;;;;;;94.93;29.27;;;;;;;3.38;100.00;102133.38;5053869;28;20383;-72
2021/10/10 03:42:28;;;;;;;368.85;61.10;;;;;;;3.33;100.00;102127.50;5055265;28;20045;-72
2021/10/10 03:44:56;;;;;;;146.52;38.58;;;;;;;3.23;100.00;102128.91;5056636;28;20052;-73
2021/10/10 03:47:24;;;;;;;168.63;40.60;;;;;;;3.15;100.00;102129.34;5052011;28;20086;-73
2021/10/10 03:49:52;;;;;;;319.73;54.55;;;;;;;3.14;100.00;102122.34;5052698;28;20468;-73
2021/10/10 03:52:19;;;;;;;287.50;52.97;;;;;;;3.10;100.00;102124.31;5053418;28;20044;-73
2021/10/10 03:57:36;;;;;;;157.15;36.65;;;;;;;3.18;100.00;102118.63;5031154;28;20352;-73
2021/10/10 04:00:07;;;;;;;313.55;56.72;;;;;;;3.19;100.00;102119.44;5055825;28;20053;-73
2021/10/10 04:02:36;;;;;;;390.02;71.03;;;;;;;3.40;100.00;102118.31;5053702;28;20056;-73
2021/10/10 04:05:07;;;;;;;343.23;58.97;;;;;;;3.31;100.00;102118.78;5053909;28;20049;-73
2021/10/10 04:07:35;;;;;;;285.90;54.75;;;;;;;3.35;100.00;102120.34;5052890;28;20036;-73
2021/10/10 04:10:07;;;;;;;330.15;59.80;;;;;;;3.37;100.00;102123.72;5052545;28;20056;-72
2021/10/10 04:12:36;;;;;;;459.33;77.72;;;;;;;3.55;100.00;102110.47;5052510;28;20344;-73
2021/10/10 04:15:05;;;;;;;441.33;77.95;;;;;;;3.61;100.00;102120.69;5051149;28;20365;-72
2021/10/10 04:17:33;;;;;;;421.25;76.32;;;;;;;3.58;100.00;102120.84;5051238;28;20126;-73
2021/10/10 04:20:01;;;;;;;410.92;79.40;;;;;;;3.61;100.00;102123.31;5052786;28;20380;-73
2021/10/10 04:22:29;;;;;;;421.38;74.72;;;;;;;3.67;100.00;102124.75;5052069;28;20376;-73
2021/10/10 04:24:57;;;;;;;370.10;67.72;;;;;;;3.62;100.00;102127.66;5057123;28;20048;-72
2021/10/10 04:27:25;;;;;;;199.48;45.63;;;;;;;3.51;100.00;102124.78;5049102;28;20044;-73
2021/10/10 04:29:55;;;;;;;336.45;69.07;;;;;;;3.41;100.00;102121.78;5051207;28;20044;-73
2021/10/10 04:32:23;;;;;;;401.27;76.22;;;;;;;3.49;100.00;102121.34;5053652;28;20045;-72
2021/10/10 04:34:50;;;;;;;463.05;86.88;;;;;;;3.64;100.00;102124.94;5050788;28;20044;-73
2021/10/10 04:37:18;;;;;;;459.98;83.82;;;;;;;3.62;100.00;102114.47;5053899;28;20265;-72
2021/10/10 04:39:46;;;;;;;431.63;82.70;;;;;;;3.64;100.00;102123.13;5053547;28;20044;-73
2021/10/10 04:42:14;;;;;;;456.83;82.53;;;;;;;3.49;100.00;102122.22;5055918;28;20048;-73
2021/10/10 04:44:42;;;;;;;356.05;63.13;;;;;;;3.54;100.00;102129.88;5056400;28;20375;-71
2021/10/10 04:47:11;;;;;;;420.10;75.05;;;;;;;3.47;100.00;102129.34;5053052;28;20067;-70
2021/10/10 04:49:39;;;;;;;493.10;94.55;;;;;;;3.60;100.00;102129.53;5054409;28;20202;-70
2021/10/10 04:52:07;;;;;;;505.55;99.30;;;;;;;3.64;100.00;102123.13;5053459;28;20513;-70
2021/10/10 04:54:35;;;;;;;259.27;59.75;;;;;;;3.51;100.00;102125.63;5052418;28;20041;-70
2021/10/10 04:57:03;;;;;;;380.80;77.25;;;;;;;3.39;100.00;102129.78;5051717;28;20045;-70
2021/10/10 04:59:31;;;;;;;403.33;78.53;;;;;;;3.24;100.00;102122.72;5057679;28;20415;-70
2021/10/10 05:01:59;;;;;;;525.42;96.80;;;;;;;3.34;100.00;102126.53;5056496;28;20293;-70
2021/10/10 05:04:28;;;;;;;511.85;102.30;;;;;;;3.44;100.00;102122.47;5054337;28;20116;-70
2021/10/10 05:06:56;;;;;;;584.70;113.45;;;;;;;3.49;100.00;102121.34;5051518;28;20056;-71
2021/10/10 05:09:24;;;;;;;268.13;58.85;;;;;;;3.19;100.00;102124.72;5054236;28;20049;-71
2021/10/10 05:11:52;;;;;;;189.70;51.72;;;;;;;3.03;100.00;102125.56;5055207;28;20041;-71
2021/10/10 05:14:20;;;;;;;336.05;73.88;;;;;;;3.23;100.00;102127.16;5050946;28;20446;-71
2021/10/10 05:16:48;;;;;;;495.73;104.82;;;;;;;3.60;100.00;102124.25;5055131;28;20197;-70
2021/10/10 05:19:16;;;;;;;591.53;126.47;;;;;;;3.92;100.00;102130.34;5058521;28;20048;-71
2021/10/10 05:21:45;;;;;;;418.27;98.82;;;;;;;4.04;100.00;102131.47;5053992;28;20500;-71
2021/10/10 05:24:13;;;;;;;653.83;136.50;;;;;;;4.05;100.00;102125.22;5059135;28;20413;-72
2021/10/10 05:26:41;;;;;;;421.17;94.22;;;;;;;3.94;100.00;102123.22;5055302;28;20647;-71
2021/10/10 05:29:09;;;;;;;381.27;90.25;;;;;;;3.97;100.00;102133.59;5056499;28;20086;-70
2021/10/10 05:31:37;;;;;;;503.50;110.95;;;;;;;4.03;100.00;102140.31;5057787;28;20041;-70
2021/10/10 05:34:05;;;;;;;564.00;125.57;;;;;;;3.96;100.00;102131.03;5058229;28;20053;-71
2021/10/10 05:36:33;;;;;;;326.90;83.65;;;;;;;3.98;100.00;102110.66;5061354;28;20095;-71
2021/10/10 05:39:02;;;;;;;584.28;133.45;;;;;;;3.99;100.00;102095.66;5059753;28;20044;-70
2021/10/10 05:41:30;;;;;;;573.95;131.65;;;;;;;4.08;100.00;102093.34;5058048;28;20044;-70
2021/10/10 05:43:58;;;;;;;568.90;126.53;;;;;;;4.19;100.00;102094.50;5059250;28;20375;-70
2021/10/10 05:46:26;;;;;;;614.42;135.77;;;;;;;4.17;100.00;102081.38;5059916;28;20436;-70
2021/10/10 05:48:54;;;;;;;653.72;143.18;;;;;;;4.15;100.00;102093.81;5054059;28;20053;-70
2021/10/10 05:51:22;;;;;;;549.58;127.50;;;;;;;4.22;100.00;102089.03;5054106;28;20099;-70
2021/10/10 05:53:50;;;;;;;382.50;96.88;;;;;;;4.24;100.00;102081.84;5056354;28;20047;-70
2021/10/10 05:56:19;;;;;;;325.83;86.00;;;;;;;4.34;100.00;102093.59;5055512;28;20048;-70
2021/10/10 05:58:54;;;;;;;229.05;73.28;;;;;;;4.46;100.00;102092.00;5052541;28;20056;-70
2021/10/10 06:01:38;;;;;;;208.85;68.07;;;;;;;4.46;100.00;102087.53;5055771;28;20115;-70
2021/10/10 06:04:08;;;;;;;315.35;81.28;;;;;;;4.34;100.00;102088.31;5054179;28;20051;-71
2021/10/10 06:06:36;;;;;;;456.65;103.57;;;;;;;4.38;100.00;102094.25;5050971;28;20336;-70
2021/10/10 06:09:05;;;;;;;680.42;143.65;;;;;;;4.42;100.00;102091.34;5057154;28;20049;-70
2021/10/10 06:11:36;;;;;;;565.95;121.32;;;;;;;4.47;100.00;102089.25;5050696;28;20458;-71
2021/10/10 06:14:04;;;;;;;626.00;132.10;;;;;;;4.54;100.00;102100.31;5060322;28;20499;-71
2021/10/10 06:16:32;;;;;;;646.00;140.75;;;;;;;4.58;100.00;102100.97;5057545;28;20044;-70
2021/10/10 06:19:01;;;;;;;600.72;133.93;;;;;;;4.58;100.00;102100.97;5054378;28;20541;-70
2021/10/10 06:21:29;;;;;;;567.83;130.27;;;;;;;4.69;100.00;102101.19;5055750;28;20037;-71
2021/10/10 06:23:57;;;;;;;504.88;118.75;;;;;;;4.85;100.00;102087.88;5055284;28;20067;-70
2021/10/10 06:26:26;;;;;;;560.60;130.02;;;;;;;4.90;100.00;102090.22;5056576;28;20396;-71
2021/10/10 06:28:55;;;;;;;589.85;132.73;;;;;;;5.00;100.00;102094.00;5052204;28;20033;-69
2021/10/10 06:31:23;;;;;;;469.05;111.18;;;;;;;5.11;100.00;102101.28;5054110;28;20398;-70
2021/10/10 06:33:51;;;;;;;592.83;132.40;;;;;;;5.16;100.00;102108.00;5056051;28;20126;-70
2021/10/10 06:36:20;;;;;;;606.13;136.85;;;;;;;5.39;100.00;102113.66;5054217;28;20094;-70
2021/10/10 06:38:49;;;;;;;663.03;147.65;;;;;;;5.46;100.00;102103.50;5056045;28;20456;-70
2021/10/10 06:41:18;;;;;;;310.73;90.88;;;;;;;5.82;100.00;102088.81;5056442;28;20052;-70
2021/10/10 06:43:46;;;;;;;671.92;154.68;;;;;;;5.97;100.00;102071.06;5057145;28;20414;-70
2021/10/10 06:46:15;;;;;;;630.08;140.82;;;;;;;6.12;100.00;102080.63;5059254;28;20045;-70
2021/10/10 06:48:43;;;;;;;808.40;176.50;;;;;;;6.02;100.00;102095.47;5051653;28;20075;-70
2021/10/10 06:51:11;;;;;;;733.40;167.77;;;;;;;5.93;100.00;102107.50;5056466;28;20391;-70
2021/10/10 06:53:38;;;;;;;840.85;185.75;;;;;;;6.14;100.00;102105.28;5054671;28;20040;-70
2021/10/10 06:56:06;;;;;;;643.60;148.18;;;;;;;6.11;100.00;102109.91;5049630;28;20041;-70
2021/10/10 06:58:34;;;;;;;743.92;160.95;;;;;;;5.83;100.00;102111.72;5057978;28;20125;-70
2021/10/10 07:01:02;;;;;;;708.60;153.32;;;;;;;5.66;100.00;102111.00;5054981;28;20036;-70
2021/10/10 07:03:32;;;;;;;643.47;139.20;;;;;;;5.77;100.00;102118.28;5056873;28;20056;-70
2021/10/10 07:06:00;;;;;;;624.35;136.90;;;;;;;5.62;100.00;102109.50;5059078;28;20491;-70
2021/10/10 07:08:28;;;;;;;697.97;157.30;;;;;;;5.57;100.00;102116.06;5058833;28;20091;-70
2021/10/10 07:10:55;;;;;;;654.30;144.00;;;;;;;5.69;100.00;102112.63;5059821;28;20102;-70
2021/10/10 07:13:23;;;;;;;686.63;147.48;;;;;;;5.67;100.00;102117.16;5056013;28;20036;-70
2021/10/10 07:15:54;;;;;;;695.00;153.95;;;;;;;5.69;100.00;102121.41;5056403;28;20425;-70
2021/10/10 07:18:25;;;;;;;620.60;138.48;;;;;;;5.77;100.00;102112.97;5053846;28;20346;-70
2021/10/10 07:21:05;;;;;;;402.35;99.25;;;;;;;6.13;100.00;102108.88;5055229;28;20052;-70
2021/10/10 07:23:54;;;;;;;342.60;89.28;;;;;;;6.49;100.00;102096.75;5056445;28;20045;-70
2021/10/10 07:26:23;;;;;;;725.22;158.80;;;;;;;6.22;100.00;102117.16;5059693;28;20068;-70
2021/10/10 07:28:51;;;;;;;675.22;142.07;;;;;;;6.15;100.00;102106.97;5054979;28;20652;-70
2021/10/10 07:31:20;;;;;;;732.53;155.27;;;;;;;6.35;100.00;102110.06;5057552;28;23323;-70
2021/10/10 07:33:47;;;;;;;431.48;101.15;;;;;;;6.84;100.00;102109.34;5050770;28;20045;-70
2021/10/10 07:36:17;;;;;;;685.58;141.63;;;;;;;6.86;100.00;102107.47;5052941;28;20052;-70
2021/10/10 07:38:45;;;;;;;752.78;152.38;;;;;;;6.68;100.00;102109.59;5054103;28;20349;-71
2021/10/10 07:41:13;;;;;;;691.45;142.85;;;;;;;6.60;100.00;102116.38;5051369;28;20036;-70
2021/10/10 07:43:42;;;;;;;781.45;161.15;;;;;;;6.62;100.00;102131.25;5055740;28;20040;-70
2021/10/10 07:46:17;;;;;;;778.33;150.52;;;;;;;6.49;100.00;102125.06;5058493;28;20309;-70
2021/10/10 07:48:45;;;;;;;524.20;114.53;;;;;;;6.67;100.00;102129.09;5051290;28;20298;-71
2021/10/10 07:51:13;;;;;;;607.10;123.85;;;;;;;7.18;100.00;102130.03;5056584;28;20349;-71
2021/10/10 07:53:42;;;;;;;597.58;123.72;;;;;;;7.07;100.00;102125.47;5051350;28;20044;-71
2021/10/10 07:56:10;;;;;;;464.88;100.70;;;;;;;7.51;100.00;102123.28;5054522;28;20040;-71
2021/10/10 07:58:39;;;;;;;656.83;124.75;;;;;;;7.23;100.00;102120.78;5054982;28;20089;-70
2021/10/10 08:01:07;;;;;;;749.85;144.55;;;;;;;7.39;100.00;102120.53;5053095;28;20037;-70
2021/10/10 08:03:35;;;;;;;685.72;134.82;;;;;;;7.31;100.00;102108.75;5057766;28;20363;-70
2021/10/10 08:06:03;;;;;;;560.83;111.65;;;;;;;7.54;100.00;102105.31;5056147;28;20040;-70
2021/10/10 08:08:31;;;;;;;431.95;97.15;;;;;;;7.89;100.00;102111.63;5048567;28;20049;-71
2021/10/10 08:11:00;;;;;;;665.58;130.02;;;;;;;7.63;100.00;102105.59;5054476;28;20053;-71
2021/10/10 08:13:28;;;;;;;641.60;120.80;;;;;;;7.91;100.00;102104.41;5050142;28;20681;-70
2021/10/10 08:15:56;;;;;;;702.03;131.05;;;;;;;8.17;100.00;102089.13;5053687;28;20057;-71
2021/10/10 08:18:24;;;;;;;572.17;112.18;;;;;;;8.36;100.00;102082.41;5051077;28;20044;-71
2021/10/10 08:20:52;;;;;;;602.38;117.82;;;;;;;8.71;100.00;102081.53;5053176;28;20789;-71
2021/10/10 08:23:20;;;;;;;394.65;89.47;;;;;;;8.45;100.00;102081.75;5054863;28;20359;-71
2021/10/10 08:25:48;;;;;;;544.63;109.25;;;;;;;8.67;100.00;102074.75;5054688;28;20090;-71
2021/10/10 08:28:18;;;;;;;328.13;82.45;;;;;;;9.12;100.00;102066.75;5050826;28;20041;-71
2021/10/10 08:30:46;;;;;;;406.02;100.93;;;;;;;9.06;100.00;102059.25;5054120;28;20044;-71
2021/10/10 08:33:14;;;;;;;355.52;88.47;;;;;;;8.76;100.00;102061.56;5052624;28;20040;-71
2021/10/10 08:35:42;;;;;;;305.05;83.35;;;;;;;9.09;100.00;102065.16;5058151;28;20395;-70
2021/10/10 08:38:10;;;;;;;219.25;73.32;;;;;;;9.01;100.00;102050.75;5049280;28;20097;-71
2021/10/10 08:40:38;;;;;;;201.73;71.03;;;;;;;9.87;100.00;102053.56;5051954;28;20389;-70
2021/10/10 08:43:07;;;;;;;194.60;68.55;;;;;;;10.37;100.00;102051.13;5054953;28;20044;-70
2021/10/10 08:45:37;;;;;;;193.32;68.35;;;;;;;9.89;100.00;102057.78;5052238;28;20433;-72
2021/10/10 08:48:05;;;;;;;179.30;69.68;;;;;;;9.19;100.00;102059.09;5048323;28;20082;-72
2021/10/10 08:50:34;;;;;;;191.00;67.95;;;;;;;9.58;100.00;102065.69;5052082;28;20048;-71
2021/10/10 08:53:02;;;;;;;191.00;65.20;;;;;;;9.50;100.00;102065.47;5055590;28;20068;-72
2021/10/10 08:55:33;;;;;;;206.32;74.78;;;;;;;9.33;100.00;102072.16;5054726;28;20033;-72
2021/10/10 08:58:01;;;;;;;192.20;65.85;;;;;;;9.34;100.00;102075.66;5052048;28;20071;-71
2021/10/10 09:00:32;;;;;;;210.40;70.97;;;;;;;9.52;100.00;102071.50;5051867;28;20048;-70
2021/10/10 09:03:11;;;;;;;242.10;75.35;;;;;;;9.85;100.00;102082.19;5052739;28;20420;-70
2021/10/10 09:05:50;;;;;;;260.00;80.93;;;;;;;10.21;100.00;102088.94;5051063;28;20531;-70
2021/10/10 09:08:18;;;;;;;331.85;91.80;;;;;;;10.18;100.00;102086.53;5052724;28;20073;-70
2021/10/10 09:10:47;;;;;;;321.38;85.50;;;;;;;10.63;100.00;102085.41;5054666;28;20386;-71
2021/10/10 09:13:17;;;;;;;415.27;99.03;;;;;;;10.94;100.00;102086.25;5052406;28;20039;-70
2021/10/10 09:15:49;;;;;;;300.98;82.28;;;;;;;11.19;100.00;102095.63;5056352;28;20044;-70
2021/10/10 09:18:19;;;;;;;275.67;83.75;;;;;;;11.86;100.00;102082.53;5054392;28;20174;-70
2021/10/10 09:20:48;;;;;;;403.00;96.05;;;;;;;11.65;100.00;102079.13;5054282;28;20048;-70
2021/10/10 09:23:30;;;;;;;232.00;78.70;;;;;;;11.78;100.00;102081.53;5055916;28;20148;-70
2021/10/10 09:25:59;;;;;;;239.45;78.88;;;;;;;11.48;100.00;102094.03;5054772;28;20044;-70
2021/10/10 09:28:29;;;;;;;272.15;78.93;;;;;;;11.46;100.00;102091.50;5055200;28;20056;-70
2021/10/10 09:30:59;;;;;;;224.70;78.25;;;;;;;11.98;100.00;102085.06;5052523;28;20499;-70
2021/10/10 09:33:47;;;;;;;227.38;79.35;;;;;;;11.63;100.00;102089.97;5057785;28;20040;-70
2021/10/10 09:36:19;;;;;;;238.15;82.03;;;;;;;11.39;100.00;102090.34;5057365;28;20742;-70
2021/10/10 09:38:53;;;;;;;233.75;80.85;;;;;;;11.40;100.00;102102.75;5053397;28;20068;-68
2021/10/10 09:41:26;;;;;;;250.73;82.00;;;;;;;11.50;100.00;102092.91;5052014;28;20045;-66
2021/10/10 09:44:04;;;;;;;286.67;83.53;;;;;;;11.52;100.00;102090.97;5049738;28;20049;-66
2021/10/10 09:46:33;;;;;;;259.05;84.05;;;;;;;11.28;100.00;102087.78;5056314;28;20082;-66
2021/10/10 09:49:20;;;;;;;275.27;89.82;;;;;;;11.26;100.00;102090.59;5048166;28;20396;-66
2021/10/10 09:51:48;;;;;;;301.98;94.03;;;;;;;10.86;100.00;102091.47;5054417;28;20045;-65
2021/10/10 09:54:16;;;;;;;300.42;93.80;;;;;;;10.77;100.00;102100.25;5054736;28;20053;-65
2021/10/10 09:57:02;;;;;;;265.02;89.53;;;;;;;11.02;100.00;102105.16;5053656;28;20041;-66
2021/10/10 09:59:31;;;;;;;286.27;85.55;;;;;;;10.75;100.00;102097.72;5056134;28;20056;-66
2021/10/10 10:01:59;;;;;;;314.88;90.45;;;;;;;10.62;100.00;102092.59;5058281;28;20056;-66
2021/10/10 10:04:41;;;;;;;310.38;93.88;;;;;;;11.09;100.00;102104.63;5052964;28;20071;-66
2021/10/10 10:07:10;;;;;;;312.70;95.93;;;;;;;11.60;100.00;102102.78;5056249;28;20052;-67
2021/10/10 10:09:38;;;;;;;308.58;95.95;;;;;;;12.15;100.00;102091.53;5056569;28;20037;-66
2021/10/10 10:12:07;;;;;;;246.02;83.40;;;;;;;12.25;100.00;102076.34;5060413;28;20560;-67
2021/10/10 10:14:35;;;;;;;215.48;78.18;;;;;;;12.63;100.00;102081.72;5055132;28;20048;-68
2021/10/10 10:17:05;;;;;;;208.88;76.22;;;;;;;12.70;100.00;102072.97;5053312;28;20526;-68
2021/10/10 10:19:34;;;;;;;193.27;78.13;;;;;;;12.88;100.00;102067.66;5056172;28;20078;-66
2021/10/10 10:22:02;;;;;;;166.05;67.68;;;;;;;13.25;100.00;102073.97;5056719;28;20095;-65
2021/10/10 10:24:31;;;;;;;160.48;67.95;;;;;;;13.49;100.00;102077.97;5057993;28;20041;-68
2021/10/10 10:26:59;;;;;;;135.77;57.53;;;;;;;13.25;100.00;102090.06;5056867;28;20097;-68
2021/10/10 10:29:29;;;;;;;130.95;57.92;;;;;;;13.17;100.00;102087.28;5057768;28;20459;-68
2021/10/10 10:31:59;;;;;;;125.20;57.20;;;;;;;14.53;100.00;102089.91;5065954;28;20071;-69
2021/10/10 10:34:28;;;;;;;100.93;50.30;;;;;;;14.01;100.00;102088.88;5062849;28;20040;-69
2021/10/10 10:36:59;;;;;;;107.07;51.08;;;;;;;14.75;100.00;102089.41;5064931;28;20044;-69
2021/10/10 10:39:40;;;;;;;92.68;46.03;;;;;;;13.49;100.00;102096.75;5062544;28;20041;-68
2021/10/10 10:42:37;;;;;;;103.68;53.58;;;;;;;13.59;100.00;102102.88;5064470;28;20051;-68
2021/10/10 10:45:19;;;;;;;109.93;54.33;;;;;;;13.46;100.00;102105.94;5051960;28;20131;-68
2021/10/10 10:47:48;;;;;;;105.45;52.05;;;;;;;13.91;100.00;102096.16;5059016;28;20390;-68
2021/10/10 10:50:16;;;;;;;96.28;51.10;;;;;;;13.85;100.00;102094.06;5060234;28;20052;-68
2021/10/10 10:52:45;;;;;;;100.70;51.10;;;;;;;14.12;100.00;102101.22;5059856;28;20090;-68
2021/10/10 10:55:19;;;;;;;93.63;48.00;;;;;;;14.38;100.00;102103.09;5061849;28;20348;-68
2021/10/10 10:57:52;;;;;;;85.53;41.22;;;;;;;14.94;100.00;102100.91;5060541;28;20056;-68
2021/10/10 11:00:28;;;;;;;83.20;43.58;;;;;;;14.72;100.00;102094.25;5057920;28;20037;-68
2021/10/10 11:03:07;;;;;;;79.72;43.15;;;;;;;14.99;100.00;102095.91;5056285;28;20063;-68
2021/10/10 11:05:40;;;;;;;90.55;43.25;;;;;;;15.42;100.00;102094.06;5057618;28;20061;-68
2021/10/10 11:08:29;;;;;;;71.95;40.95;;;;;;;16.96;100.00;102089.81;5065619;28;20510;-68
2021/10/10 11:11:20;;;;;;;74.15;39.35;;;;;;;16.16;100.00;102091.47;5060335;28;20048;-68
2021/10/10 11:13:51;;;;;;;69.47;38.88;;;;;;;15.56;100.00;102091.72;5056015;28;20029;-68